Impacts TAF Board INFO
FOR SITUATIONAL AWARENESS. NOT TO BE USED FOR FLIGHT PLANNING PURPOSES.
IDs:

KMDW - Chicago/Midway Intl, IL, US

Issued at 1720 UTC 25 Feb 2018
Updated at 1946 UTC 25 Feb 2018
Potential Impact None Slight Moderate High
Time<<26/20Z 26/21Z 26/22Z 26/23Z 27/00Z 27/01Z 27/02Z 27/03Z 27/04Z 27/05Z 27/06Z 27/07Z 27/08Z
Type PRVL PRVL PRVL PRVL
VIS >6 >6 >6 >6
CIG -- -- -- --
Cover SKC SKC SKC SKC
FltCat VFR VFR VFR VFR
WX -- -- -- --
WDir 220 220 220 220
WSpd 8 8 8 8
WGst -- -- -- --

Raw TAF
KMDW 251720Z 2518/2624 25018G28KT P6SM SCT030
  FM260100 24008KT P6SM FEW200
  FM261200 22008KT P6SM SKC


METAR Board
Radar Display
Forecast Discussion

FOR SITUATIONAL AWARENESS. NOT TO BE USED FOR FLIGHT PLANNING PURPOSES.